CheckWX is a tool to help pilots better visualize weather data.  It is not intended as a substitute for an official pre-flight weather briefing.

12:07:46 UTC

KHWY METAR
Warrenton-Fauquier Airport
Warrenton, Virginia, USA
Current

33 mins ago

KHWY 041135Z AUTO 00000KT 10SM CLR 03/01 A2999 RMK AO2 T00260011
Observed
Apr-4 @ 11:35 UTC
Visibility
Flight Rules
VFR
Cloud Levels
  • Clear skies
Temperature
C / 37°F
Dewpoint
C / 34°F
Humidity
87%
Altimeter
29.99" Hg
Pressure
1015.62 hPa
Previous

53 mins ago

KHWY 041115Z AUTO 00000KT 10SM CLR 02/01 A2998 RMK AO2 T00240006
Observed
Apr-4 @ 11:15 UTC
Visibility
Flight Rules
VFR
Cloud Levels
  • Clear skies
Temperature
C / 36°F
Dewpoint
C / 34°F
Humidity
93%
Altimeter
29.98" Hg
Pressure
1015.22 hPa
Previous

1 hour ago

KHWY 041055Z AUTO 00000KT 10SM SCT050 03/01 A2997 RMK AO2 T00290014
Observed
Apr-4 @ 10:55 UTC
Visibility
Flight Rules
VFR
Cloud Levels
  • Scattered at 5,000' AGL
Temperature
C / 37°F
Dewpoint
C / 34°F
Humidity
87%
Altimeter
29.97" Hg
Pressure
1014.92 hPa